createdAt,value
2018-12-10T00:02:33.248Z,99.90
2018-12-10T00:05:08.031Z,99.90
2018-12-10T00:07:42.741Z,99.90
2018-12-10T00:10:17.372Z,99.90
2018-12-10T00:12:51.876Z,99.90
2018-12-10T00:15:26.532Z,99.90
2018-12-10T00:18:03.402Z,99.90
2018-12-10T00:20:38.705Z,99.90
2018-12-10T00:23:13.473Z,99.90
2018-12-10T00:25:48.302Z,99.90
2018-12-10T00:28:27.406Z,99.90
2018-12-10T00:31:06.080Z,99.90
2018-12-10T00:33:41.063Z,99.90
2018-12-10T00:36:15.887Z,99.90
2018-12-10T00:38:50.621Z,99.90
2018-12-10T00:41:25.252Z,99.90
2018-12-10T00:44:12.176Z,99.90
2018-12-10T00:46:46.799Z,99.90
2018-12-10T00:49:21.369Z,99.90
2018-12-10T00:51:56.134Z,99.90
2018-12-10T00:54:35.089Z,99.90
2018-12-10T00:57:09.691Z,99.90
2018-12-10T00:59:44.484Z,99.90
2018-12-10T01:02:19.244Z,99.90
2018-12-10T01:04:53.837Z,99.90
2018-12-10T01:07:28.364Z,99.90
2018-12-10T01:10:08.853Z,99.90
2018-12-10T01:12:43.549Z,99.90
2018-12-10T01:15:18.184Z,99.90
2018-12-10T01:17:54.531Z,99.90
2018-12-10T01:20:32.394Z,99.90
2018-12-10T01:23:07.811Z,99.90
2018-12-10T01:25:42.403Z,99.90
2018-12-10T01:28:16.940Z,99.90
2018-12-10T01:30:59.956Z,99.90
2018-12-10T01:33:36.360Z,99.90
2018-12-10T01:36:10.871Z,99.90
2018-12-10T01:38:45.590Z,99.90
2018-12-10T01:41:20.791Z,99.90
2018-12-10T01:43:56.328Z,99.90
2018-12-10T01:46:32.716Z,99.90
2018-12-10T01:49:08.126Z,99.90
2018-12-10T01:51:42.850Z,99.90
2018-12-10T01:54:17.684Z,99.90
2018-12-10T01:56:52.429Z,99.90
2018-12-10T01:59:38.398Z,99.90
2018-12-10T02:02:12.932Z,99.90
2018-12-10T02:04:47.623Z,99.90
2018-12-10T02:07:22.343Z,99.90
2018-12-10T02:10:03.015Z,99.90
2018-12-10T02:12:38.820Z,99.90
2018-12-10T02:15:13.476Z,99.90
2018-12-10T02:17:48.132Z,99.90
2018-12-10T02:20:22.949Z,99.90
2018-12-10T02:22:58.450Z,99.90
2018-12-10T02:25:36.941Z,99.90
2018-12-10T02:28:12.439Z,99.90
2018-12-10T02:30:47.241Z,99.90
2018-12-10T02:33:21.919Z,99.90
2018-12-10T02:35:56.516Z,99.90
2018-12-10T02:38:32.319Z,99.90
2018-12-10T02:41:08.086Z,99.90
2018-12-10T02:43:42.885Z,99.90
2018-12-10T02:46:18.048Z,99.90
2018-12-10T02:48:52.625Z,99.90
2018-12-10T02:51:27.258Z,99.90
2018-12-10T02:54:07.332Z,99.90
2018-12-10T02:56:42.216Z,99.90
2018-12-10T02:59:16.923Z,99.90
2018-12-10T03:01:51.814Z,99.90
2018-12-10T03:04:26.400Z,99.90
2018-12-10T03:07:07.395Z,99.90
2018-12-10T03:09:42.034Z,99.90
2018-12-10T03:12:16.594Z,99.90
2018-12-10T03:14:51.414Z,99.90
2018-12-10T03:17:25.972Z,99.90
2018-12-10T03:20:00.597Z,99.90
2018-12-10T03:22:37.630Z,99.90
2018-12-10T03:25:12.302Z,99.90
2018-12-10T03:27:47.262Z,99.90
2018-12-10T03:30:21.952Z,99.90
2018-12-10T03:32:56.743Z,99.90
2018-12-10T03:35:31.494Z,99.90
2018-12-10T03:38:08.269Z,99.90
2018-12-10T03:40:42.755Z,99.90
2018-12-10T03:43:18.055Z,99.90
2018-12-10T03:45:52.824Z,99.90
2018-12-10T03:48:27.577Z,99.90
2018-12-10T03:51:08.099Z,99.90
2018-12-10T03:53:42.816Z,99.90
2018-12-10T03:56:17.461Z,99.90
2018-12-10T03:58:52.296Z,99.90
2018-12-10T04:01:26.804Z,99.90
2018-12-10T04:04:06.075Z,99.90
2018-12-10T04:06:40.688Z,99.90
2018-12-10T04:09:15.191Z,99.90
2018-12-10T04:11:49.935Z,99.90
2018-12-10T04:14:24.712Z,99.90
2018-12-10T04:17:00.259Z,99.90
2018-12-10T04:19:36.916Z,99.90
2018-12-10T04:22:11.543Z,99.90
2018-12-10T04:24:46.312Z,99.90
2018-12-10T04:27:21.237Z,99.90
2018-12-10T04:29:55.833Z,99.90
2018-12-10T04:32:33.669Z,99.90
2018-12-10T04:35:08.517Z,99.90
2018-12-10T04:37:43.266Z,99.90
2018-12-10T04:40:18.036Z,99.90
2018-12-10T04:42:52.548Z,99.90
2018-12-10T04:45:29.407Z,99.90
2018-12-10T04:48:05.717Z,99.90
2018-12-10T04:50:40.380Z,99.90
2018-12-10T04:53:15.090Z,99.90
2018-12-10T04:55:49.537Z,99.90
2018-12-10T04:58:24.215Z,99.90
2018-12-10T05:00:58.724Z,99.90
2018-12-10T05:03:33.502Z,99.90
2018-12-10T05:06:08.200Z,99.90
2018-12-10T05:08:42.574Z,99.90
2018-12-10T05:11:17.334Z,99.90
2018-12-10T05:13:52.049Z,99.90
2018-12-10T05:16:26.514Z,99.90
2018-12-10T05:19:02.934Z,99.90
2018-12-10T05:21:37.812Z,99.90
2018-12-10T05:24:12.468Z,99.90
2018-12-10T05:26:47.070Z,99.90
2018-12-10T05:29:21.729Z,99.90
2018-12-10T05:31:59.051Z,99.90
2018-12-10T05:34:37.044Z,99.90
2018-12-10T05:37:11.657Z,99.90
2018-12-10T05:39:46.306Z,99.90
2018-12-10T05:42:20.802Z,99.90
2018-12-10T05:44:55.255Z,99.90
2018-12-10T05:47:32.755Z,99.90
2018-12-10T05:50:11.474Z,99.90
2018-12-10T05:52:46.172Z,99.90
2018-12-10T05:55:20.896Z,99.90
2018-12-10T05:57:55.713Z,99.90
2018-12-10T06:00:34.158Z,99.90
2018-12-10T06:03:08.860Z,99.90
2018-12-10T06:05:43.407Z,99.90
2018-12-10T06:08:19.161Z,99.90
2018-12-10T06:10:57.182Z,99.90
2018-12-10T06:13:35.189Z,99.90
2018-12-10T06:16:09.776Z,99.90
2018-12-10T06:18:45.327Z,99.90
2018-12-10T06:21:20.128Z,99.90
2018-12-10T06:23:55.563Z,99.90
2018-12-10T06:26:35.086Z,99.90
2018-12-10T06:29:09.937Z,99.90
2018-12-10T06:31:44.964Z,99.90
2018-12-10T06:34:19.633Z,99.90
2018-12-10T06:36:56.390Z,99.90
2018-12-10T06:39:35.680Z,99.90
2018-12-10T06:42:10.971Z,99.90
2018-12-10T06:44:45.700Z,99.90
2018-12-10T06:47:20.385Z,99.90
2018-12-10T06:49:55.118Z,99.90
2018-12-10T06:52:32.188Z,99.90
2018-12-10T06:55:08.099Z,99.90
2018-12-10T06:57:42.854Z,99.90
2018-12-10T07:00:18.515Z,99.90
2018-12-10T07:02:54.704Z,99.90
2018-12-10T07:05:34.701Z,99.90
2018-12-10T07:08:09.354Z,99.90
2018-12-10T07:10:44.085Z,99.90
2018-12-10T07:13:18.869Z,99.90
2018-12-10T07:15:53.891Z,99.90
2018-12-10T07:18:29.589Z,99.90
2018-12-10T07:21:08.534Z,99.90
2018-12-10T07:23:45.624Z,99.90
2018-12-10T07:26:21.163Z,99.90
2018-12-10T07:29:03.700Z,99.90
2018-12-10T07:31:38.241Z,99.90
2018-12-10T07:34:12.887Z,99.90
2018-12-10T07:36:48.979Z,99.90
2018-12-10T07:39:31.397Z,99.90
2018-12-10T07:42:07.522Z,99.90
2018-12-10T07:44:41.915Z,99.90
2018-12-10T07:47:16.660Z,99.90
2018-12-10T07:49:52.692Z,99.90
2018-12-10T07:52:30.773Z,99.90
2018-12-10T07:55:07.398Z,99.90
2018-12-10T07:57:41.895Z,99.90
2018-12-10T08:00:16.492Z,99.90
2018-12-10T08:02:51.141Z,99.90
2018-12-10T08:05:35.182Z,99.90
2018-12-10T08:08:09.737Z,99.90
2018-12-10T08:10:44.501Z,99.90
2018-12-10T08:13:19.175Z,99.90
2018-12-10T08:15:53.765Z,99.90
2018-12-10T08:18:37.869Z,99.90
2018-12-10T08:21:12.578Z,99.90
2018-12-10T08:23:47.056Z,99.90
2018-12-10T08:26:21.555Z,99.90
2018-12-10T08:29:03.886Z,99.90
2018-12-10T08:31:40.466Z,99.90
2018-12-10T08:34:15.041Z,99.90
2018-12-10T08:36:50.402Z,99.90
2018-12-10T08:39:36.225Z,99.90
2018-12-10T08:42:10.784Z,99.90
2018-12-10T08:44:45.307Z,99.90
2018-12-10T08:47:25.710Z,99.90
2018-12-10T08:50:00.516Z,99.90
2018-12-10T08:52:37.397Z,99.90
2018-12-10T08:55:12.158Z,99.90
2018-12-10T08:57:47.383Z,99.90
2018-12-10T09:00:21.975Z,99.90
2018-12-10T09:02:56.593Z,99.90
2018-12-10T09:05:36.400Z,99.90
2018-12-10T09:08:10.916Z,98.90
2018-12-10T09:10:45.444Z,95.40
2018-12-10T09:13:20.133Z,99.10
2018-12-10T09:15:54.976Z,99.90
2018-12-10T09:18:36.805Z,99.90
2018-12-10T09:21:11.410Z,99.90
2018-12-10T09:23:46.086Z,99.90
2018-12-10T09:26:20.793Z,99.90
2018-12-10T09:28:55.446Z,99.90
2018-12-10T09:31:43.844Z,98.20
2018-12-10T09:34:18.455Z,94.70
2018-12-10T09:36:52.964Z,87.20
2018-12-10T09:39:27.682Z,83.80
2018-12-10T09:42:06.140Z,73.90
2018-12-10T09:44:41.373Z,76.10
2018-12-10T09:47:15.976Z,86.90
2018-12-10T09:49:50.629Z,95.80
2018-12-10T09:52:25.494Z,99.90
2018-12-10T09:57:41.109Z,99.90
2018-12-10T10:00:15.881Z,99.90
2018-12-10T10:02:53.597Z,99.90
2018-12-10T10:05:29.371Z,99.90
2018-12-10T10:08:09.162Z,99.90
2018-12-10T10:10:44.403Z,99.90
2018-12-10T10:13:18.900Z,99.90
2018-12-10T10:15:53.654Z,99.90
2018-12-10T10:18:28.325Z,99.90
2018-12-10T10:21:11.249Z,99.90
2018-12-10T10:23:42.826Z,99.90
2018-12-10T10:26:17.557Z,99.90
2018-12-10T10:28:52.456Z,99.90
2018-12-10T10:31:31.549Z,99.90
2018-12-10T10:34:07.337Z,99.90
2018-12-10T10:36:41.939Z,99.90
2018-12-10T10:39:19.061Z,99.90
2018-12-10T10:41:57.257Z,99.90
2018-12-10T10:44:38.273Z,99.90
2018-12-10T10:47:13.308Z,99.90
2018-12-10T10:49:50.358Z,99.90
2018-12-10T10:52:33.319Z,99.90
2018-12-10T10:55:08.334Z,99.90
2018-12-10T10:57:43.360Z,99.90
2018-12-10T11:00:23.976Z,99.90
2018-12-10T11:03:07.595Z,99.90
2018-12-10T11:05:43.535Z,99.90
2018-12-10T11:08:19.246Z,99.90
2018-12-10T11:10:56.284Z,99.90
2018-12-10T11:13:34.612Z,99.90
2018-12-10T11:16:10.019Z,99.90
2018-12-10T11:18:46.165Z,99.90
2018-12-10T11:21:21.482Z,99.90
2018-12-10T11:23:56.310Z,99.90
2018-12-10T11:26:35.995Z,99.90
2018-12-10T11:29:10.655Z,99.90
2018-12-10T11:31:45.352Z,99.90
2018-12-10T11:34:20.002Z,99.90
2018-12-10T11:37:00.265Z,99.90
2018-12-10T11:39:37.406Z,99.90
2018-12-10T11:42:12.046Z,99.90
2018-12-10T11:44:46.695Z,99.90
2018-12-10T11:47:21.425Z,99.90
2018-12-10T11:49:59.286Z,99.90
2018-12-10T11:52:35.874Z,99.90
2018-12-10T11:55:10.448Z,99.90
2018-12-10T11:57:45.159Z,99.90
2018-12-10T12:00:20.670Z,99.90
2018-12-10T12:03:00.624Z,99.90
2018-12-10T12:05:36.662Z,99.90
2018-12-10T12:08:11.253Z,99.90
2018-12-10T12:10:45.955Z,99.90
2018-12-10T12:13:22.353Z,99.90
2018-12-10T12:15:57.190Z,99.90
2018-12-10T12:18:32.006Z,99.90
2018-12-10T12:21:08.801Z,99.90
2018-12-10T12:23:44.352Z,99.90
2018-12-10T12:26:18.991Z,99.90
2018-12-10T12:29:01.406Z,99.90
2018-12-10T12:31:36.135Z,99.90
2018-12-10T12:34:10.796Z,99.90
2018-12-10T12:36:45.513Z,99.90
2018-12-10T12:39:20.304Z,99.90
2018-12-10T12:41:55.093Z,99.90
2018-12-10T12:44:29.559Z,99.90
2018-12-10T12:47:05.516Z,99.90
2018-12-10T12:49:39.857Z,99.90
2018-12-10T12:52:14.447Z,99.90
2018-12-10T12:54:49.024Z,99.90
2018-12-10T12:57:23.723Z,99.90
2018-12-10T12:59:58.251Z,99.90
2018-12-10T13:02:36.208Z,99.90
2018-12-10T13:05:11.656Z,99.90
2018-12-10T13:07:46.441Z,99.90
2018-12-10T13:10:21.374Z,99.90
2018-12-10T13:12:56.186Z,99.90
2018-12-10T13:15:30.891Z,99.90
2018-12-10T13:18:06.725Z,99.90
2018-12-10T13:20:41.325Z,99.90
2018-12-10T13:23:15.977Z,99.90
2018-12-10T13:25:50.563Z,99.90
2018-12-10T13:28:25.724Z,99.90
2018-12-10T13:31:00.548Z,99.90
2018-12-10T13:33:35.885Z,99.90
2018-12-10T13:36:11.479Z,99.90
2018-12-10T13:38:46.848Z,99.90
2018-12-10T13:41:23.407Z,99.90
2018-12-10T13:44:00.339Z,99.90
2018-12-10T13:46:36.776Z,99.90
2018-12-10T13:49:12.669Z,99.90
2018-12-10T13:51:48.414Z,99.90
2018-12-10T13:54:23.833Z,99.90
2018-12-10T13:56:58.585Z,99.90
2018-12-10T13:59:38.338Z,99.90
2018-12-10T14:02:14.578Z,99.90
2018-12-10T14:04:55.265Z,99.90
2018-12-10T14:07:37.274Z,99.90
2018-12-10T14:10:12.597Z,99.90
2018-12-10T14:12:48.964Z,99.90
2018-12-10T14:15:28.528Z,99.90
2018-12-10T14:18:06.368Z,99.90
2018-12-10T14:20:42.411Z,99.90
2018-12-10T14:23:17.227Z,99.90
2018-12-10T14:25:55.426Z,99.90
2018-12-10T14:28:32.971Z,99.90
2018-12-10T14:31:11.580Z,99.90
2018-12-10T14:33:46.319Z,99.90
2018-12-10T14:36:23.702Z,99.90
2018-12-10T14:38:59.256Z,99.90
2018-12-10T14:41:35.756Z,99.90
2018-12-10T14:44:11.040Z,99.90
2018-12-10T14:46:45.629Z,99.90
2018-12-10T14:49:21.026Z,99.90
2018-12-10T14:52:00.726Z,99.90
2018-12-10T14:54:38.248Z,99.90
2018-12-10T14:57:18.061Z,99.90
2018-12-10T15:00:08.173Z,99.90
2018-12-10T15:02:44.947Z,99.90
2018-12-10T15:05:21.942Z,99.90
2018-12-10T15:08:02.545Z,99.90
2018-12-10T15:10:41.526Z,99.90
2018-12-10T15:16:22.083Z,99.90
2018-12-10T15:19:10.691Z,99.90
2018-12-10T15:21:47.419Z,99.90
2018-12-10T15:24:36.180Z,99.90
2018-12-10T15:27:11.470Z,99.90
2018-12-10T15:30:02.666Z,99.90
2018-12-10T15:32:40.231Z,99.90
2018-12-10T15:35:40.187Z,99.90
2018-12-10T15:38:16.091Z,99.90
2018-12-10T15:41:05.990Z,99.90
2018-12-10T15:44:08.005Z,99.90
2018-12-10T15:50:05.964Z,99.90
2018-12-10T15:52:45.767Z,99.90
2018-12-10T15:55:25.887Z,99.90
2018-12-10T15:58:22.422Z,99.90
2018-12-10T16:01:06.850Z,99.90
2018-12-10T16:03:51.181Z,99.90
2018-12-10T16:06:45.729Z,99.90
2018-12-10T16:09:27.665Z,99.90
2018-12-10T16:12:10.008Z,99.90
2018-12-10T16:14:45.607Z,99.90
2018-12-10T16:17:21.114Z,99.90
2018-12-10T16:19:56.598Z,99.90
2018-12-10T16:22:31.605Z,99.90
2018-12-10T16:25:06.648Z,99.90
2018-12-10T16:27:44.636Z,99.90
2018-12-10T16:30:20.775Z,99.90
2018-12-10T16:32:56.210Z,99.90
2018-12-10T16:35:32.883Z,99.90
2018-12-10T16:38:08.193Z,99.90
2018-12-10T16:40:42.893Z,99.90
2018-12-10T16:43:18.697Z,99.90
2018-12-10T16:45:54.388Z,99.90
2018-12-10T16:48:30.200Z,99.90
2018-12-10T16:51:06.898Z,99.90
2018-12-10T16:53:42.657Z,99.90
2018-12-10T16:56:18.840Z,99.90
2018-12-10T16:58:54.446Z,99.90
2018-12-10T17:01:30.948Z,99.90
2018-12-10T17:04:07.265Z,99.90
2018-12-10T17:06:42.914Z,99.90
2018-12-10T17:09:18.197Z,99.90
2018-12-10T17:11:53.928Z,99.90
2018-12-10T17:14:30.669Z,99.90
2018-12-10T17:17:13.667Z,99.90
2018-12-10T17:19:49.539Z,99.90
2018-12-10T17:22:25.710Z,99.90
2018-12-10T17:25:02.766Z,99.90
2018-12-10T17:27:50.996Z,99.90
2018-12-10T17:30:27.196Z,99.90
2018-12-10T17:33:03.135Z,99.90
2018-12-10T17:35:39.751Z,99.90
2018-12-10T17:38:23.225Z,99.90
2018-12-10T17:40:59.898Z,99.90
2018-12-10T17:43:48.170Z,99.90
2018-12-10T17:46:52.005Z,99.90
2018-12-10T17:49:27.093Z,99.90
2018-12-10T17:52:20.547Z,99.90
2018-12-10T17:55:04.331Z,99.90
2018-12-10T17:57:39.544Z,99.90
2018-12-10T18:00:15.872Z,99.90
2018-12-10T18:02:59.403Z,99.90
2018-12-10T18:05:35.666Z,99.90
2018-12-10T18:08:10.800Z,99.90
2018-12-10T18:10:46.551Z,99.90
2018-12-10T18:13:22.624Z,99.90
2018-12-10T18:15:57.452Z,99.90
2018-12-10T18:18:33.953Z,99.90
2018-12-10T18:21:09.838Z,99.90
2018-12-10T18:23:46.120Z,99.90
2018-12-10T18:26:22.023Z,99.90
2018-12-10T18:31:40.215Z,99.90
2018-12-10T18:34:16.260Z,99.90
2018-12-10T18:36:51.379Z,99.90
2018-12-10T18:39:27.413Z,99.90
2018-12-10T18:42:05.175Z,99.90
2018-12-10T18:44:40.194Z,99.90
2018-12-10T18:47:15.821Z,99.90
2018-12-10T18:49:50.477Z,99.90
2018-12-10T18:52:27.544Z,99.90
2018-12-10T18:55:24.839Z,99.90
2018-12-10T19:01:00.371Z,99.90
2018-12-10T19:03:40.433Z,99.90
2018-12-10T19:06:16.157Z,99.90
2018-12-10T19:08:52.357Z,99.90
2018-12-10T19:11:28.757Z,99.90
2018-12-10T19:14:03.719Z,99.90
2018-12-10T19:16:40.512Z,99.90
2018-12-10T19:19:15.467Z,99.90
2018-12-10T19:21:50.967Z,99.90
2018-12-10T19:24:31.412Z,99.90
2018-12-10T19:27:13.147Z,99.90
2018-12-10T19:29:51.522Z,99.90
2018-12-10T19:32:26.420Z,99.90
2018-12-10T19:35:05.813Z,99.90
2018-12-10T19:37:40.724Z,99.90
2018-12-10T19:40:15.881Z,99.90
2018-12-10T19:42:50.963Z,99.90
2018-12-10T19:45:25.783Z,99.90
2018-12-10T19:48:04.547Z,99.90
2018-12-10T19:50:39.400Z,99.90
2018-12-10T19:53:14.226Z,99.90
2018-12-10T19:55:49.306Z,99.90
2018-12-10T19:58:24.148Z,99.90
2018-12-10T20:01:01.522Z,99.90
2018-12-10T20:03:36.691Z,99.90
2018-12-10T20:06:18.324Z,99.90
2018-12-10T20:08:54.274Z,99.90
2018-12-10T20:11:29.829Z,99.90
2018-12-10T20:14:04.990Z,99.90
2018-12-10T20:16:40.713Z,99.90
2018-12-10T20:19:15.482Z,99.90
2018-12-10T20:21:53.515Z,99.90
2018-12-10T20:24:28.361Z,99.90
2018-12-10T20:27:03.768Z,99.90
2018-12-10T20:29:38.548Z,99.90
2018-12-10T20:32:14.006Z,99.90
2018-12-10T20:34:48.840Z,99.90
2018-12-10T20:37:23.693Z,99.90
2018-12-10T20:39:58.643Z,99.90
2018-12-10T20:42:34.342Z,99.90
2018-12-10T20:45:10.475Z,99.90
2018-12-10T20:47:45.372Z,99.90
2018-12-10T20:50:20.065Z,99.90
2018-12-10T20:52:54.823Z,99.90
2018-12-10T20:55:29.949Z,99.90
2018-12-10T20:58:04.833Z,99.90
2018-12-10T21:00:39.928Z,99.90
2018-12-10T21:03:16.113Z,99.90
2018-12-10T21:05:56.264Z,99.90
2018-12-10T21:08:31.251Z,99.90
2018-12-10T21:11:06.180Z,99.90
2018-12-10T21:13:41.041Z,99.90
2018-12-10T21:16:16.004Z,99.90
2018-12-10T21:18:51.005Z,99.90
2018-12-10T21:21:25.986Z,99.90
2018-12-10T21:24:00.796Z,99.90
2018-12-10T21:26:35.624Z,99.90
2018-12-10T21:29:10.485Z,99.90
2018-12-10T21:31:45.390Z,99.90
2018-12-10T21:34:20.301Z,99.90
2018-12-10T21:36:55.365Z,99.90
2018-12-10T21:39:30.496Z,99.90
2018-12-10T21:42:05.480Z,99.90
2018-12-10T21:44:40.391Z,99.90
2018-12-10T21:47:15.850Z,99.90
2018-12-10T21:49:51.989Z,99.90
2018-12-10T21:52:28.334Z,99.90
2018-12-10T21:55:04.116Z,99.90
2018-12-10T21:57:38.989Z,99.90
2018-12-10T22:00:13.993Z,99.90
2018-12-10T22:02:49.059Z,99.90
2018-12-10T22:05:23.976Z,99.90
2018-12-10T22:07:59.374Z,99.90
2018-12-10T22:10:34.877Z,99.90
2018-12-10T22:13:10.355Z,99.90
2018-12-10T22:15:46.881Z,99.90
2018-12-10T22:18:22.524Z,99.90
2018-12-10T22:20:58.939Z,99.90
2018-12-10T22:23:34.391Z,99.90
2018-12-10T22:26:09.507Z,99.90
2018-12-10T22:31:32.837Z,99.90
2018-12-10T22:34:07.762Z,99.90
2018-12-10T22:36:44.775Z,99.90
2018-12-10T22:39:19.424Z,99.90
2018-12-10T22:41:55.259Z,99.90
2018-12-10T22:44:30.679Z,99.90
2018-12-10T22:47:05.923Z,99.90
2018-12-10T22:49:42.984Z,99.90
2018-12-10T22:52:18.188Z,99.90
2018-12-10T22:54:53.316Z,99.90
2018-12-10T22:57:28.669Z,99.90
2018-12-10T23:00:05.077Z,99.90
2018-12-10T23:02:39.948Z,99.90
2018-12-10T23:05:14.621Z,99.90
2018-12-10T23:07:49.432Z,99.90
2018-12-10T23:10:25.132Z,99.90
2018-12-10T23:13:01.230Z,99.90
2018-12-10T23:15:38.394Z,99.90
2018-12-10T23:18:14.053Z,99.90
2018-12-10T23:20:51.100Z,99.90
2018-12-10T23:23:27.581Z,99.90
2018-12-10T23:26:04.160Z,99.90
2018-12-10T23:31:19.086Z,99.90
2018-12-10T23:33:54.266Z,99.90
2018-12-10T23:36:29.517Z,99.90
2018-12-10T23:39:06.777Z,99.90
2018-12-10T23:41:41.839Z,99.90
2018-12-10T23:44:21.925Z,99.90
2018-12-10T23:46:56.704Z,99.90
2018-12-10T23:49:31.896Z,99.90
2018-12-10T23:52:06.556Z,99.90
2018-12-10T23:54:41.343Z,99.90
2018-12-10T23:57:16.035Z,99.90
2018-12-10T23:59:50.818Z,99.90
